Impacts METAR Board
IDs:

KSLC - Salt Lake City Intl, UT, US

Updated at: 0200 UTC 16 Oct 2018
Potential Impact None Slight Moderate High
Time 15/14Z 15/15Z 15/16Z 15/17Z 15/18Z 15/19Z 15/20Z 15/21Z 15/22Z 15/23Z 16/00Z 16/01Z 16/02Z
Temp32 33 38 41 44 46 46 47 48 48 47 45 42
Dewpt22 21 22 19 18 18 19 19 21 22 24 24 27
Altim30.43 30.45 30.46 30.45 30.45 30.44 30.41 30.39 30.37 30.36 30.35 30.35 30.36
VIS10 10 10 10 10 10 10 10 10 10 10 10 10
CIG-- -- -- -- -- -- -- -- -- -- -- -- --
CoverCLRCLRCLRCLRCLRFEWFEWFEWFEWFEWFEWFEWCLR
FltCatVFRVFRVFRVFRVFRVFRVFRVFRVFRVFRVFRVFRVFR
WX--------------------------
WDir0250350350310320320310320310320350360
WSpd0 3 3 5 8 10 12 11 11 11 10 5 5
WGst-- -- -- -- -- -- -- -- -- -- -- -- --
Raw hourly METARs
KSLC 151354Z 00000KT 10SM CLR 00/M06 A3043 RMK AO2 SLP310 T00001056
KSLC 151454Z 25003KT 10SM CLR 01/M06 A3045 RMK AO2 SLP317 T00061061 53012
KSLC 151554Z 35003KT 10SM CLR 03/M06 A3046 RMK AO2 SLP317 T00331056
KSLC 151654Z 35005KT 10SM CLR 05/M07 A3045 RMK AO2 SLP317 T00501072
KSLC 151754Z 31008KT 10SM CLR 07/M08 A3045 RMK AO2 SLP312 T00671078 10067 21017 58001
KSLC 151854Z 32010KT 10SM FEW090 08/M08 A3044 RMK AO2 SLP309 T00781078
KSLC 151954Z 32012KT 10SM FEW085 FEW200 08/M07 A3041 RMK AO2 SLP300 T00781072
KSLC 152054Z 31011KT 10SM FEW085 FEW200 08/M07 A3039 RMK AO2 SLP291 T00831072 58018
KSLC 152154Z 32011KT 10SM FEW085 FEW200 09/M06 A3037 RMK AO2 SLP286 T00891061
KSLC 152254Z 31011KT 10SM FEW200 09/M06 A3036 RMK AO2 SLP280 T00891056
KSLC 152354Z 32010KT 10SM FEW200 08/M04 A3035 RMK AO2 SLP280 T00831044 10094 20061 56010
KSLC 160054Z 35005KT 10SM FEW200 07/M04 A3035 RMK AO2 SLP283 T00721044
KSLC 160154Z 36005KT 10SM CLR 06/M03 A3036 RMK AO2 SLP287 T00561028



Page loaded:  02:12 UTC  |   07:12 PM Pacific  |   08:12 PM Mountain  |   09:12 PM Central  |   10:12 PM Eastern

 

ADVISORIES

FORECASTS

FORECASTS

OBSERVATIONS

USER TOOLS

ABOUT US